Terminal Aerodrome Forecast
Issued by NWS

Home | Current Version | Previous Version | Text Only | Print | Product List | Glossary On
Versions: 1 2 3 4 5 6 7 8 9 10 11 12 13 14 15 16 17
000
FTUS44 KLZK 231100 RRA
TAFPBF
TAF
KPBF 231141Z 2312/2412 00000KT 6SM BR SKC
     FM231300 VRB02KT P6SM SKC
     FM231800 29006KT P6SM BKN050
     FM240000 32002KT P6SM FEW250
     FM240600 01002KT P6SM SKC=

USA.gov is the U.S. government's official web portal to all federal, state and local government web resources and services.